Alvord, Iowa
Current Conditions -  °F | °C
As of 12:15 PM on Sunday 25 Jan 2015 (Local Time) from KLYV Reporting Station
Overcast Overcast  
Wind Chill: 28°   Ceiling: 600
Heat Index: 34°   Visibility: 10mi
Dew Point: 32°   Wind: 7mph
Humidity: 93%   Direction: 350°N
Pressure: 30"   Gusts: NA
Location:  43.34°N, 96.3°W
Report Text: KLYV 251815Z AUTO 35006KT 10SM OVC006 01/00 A3000 RMK AO2
Loading
Personal Weather Stations






























Interactive Weather Map New forecast layout! Learn more

10-Day Weather Forecast

Advertisements
Track Severe Weather on mobile